sensor_id;sensor_type;location;lat;lon;timestamp;P1;durP1;ratioP1;P2;durP2;ratioP2
59207;SDS011;44977;53.132;6.408;2023-02-28T00:03:04;13.65;;;4.68;;
59207;SDS011;44977;53.132;6.408;2023-02-28T00:08:05;10.45;;;4.47;;
59207;SDS011;44977;53.132;6.408;2023-02-28T00:13:05;13.05;;;4.53;;
59207;SDS011;44977;53.132;6.408;2023-02-28T00:18:06;11.50;;;4.90;;
59207;SDS011;44977;53.132;6.408;2023-02-28T00:23:07;11.77;;;4.93;;
59207;SDS011;44977;53.132;6.408;2023-02-28T00:28:08;11.70;;;5.70;;
59207;SDS011;44977;53.132;6.408;2023-02-28T00:33:09;9.70;;;5.13;;
59207;SDS011;44977;53.132;6.408;2023-02-28T00:38:10;11.63;;;4.22;;
59207;SDS011;44977;53.132;6.408;2023-02-28T00:43:10;10.25;;;4.90;;
59207;SDS011;44977;53.132;6.408;2023-02-28T00:48:11;10.88;;;5.05;;
59207;SDS011;44977;53.132;6.408;2023-02-28T00:53:12;11.25;;;4.78;;
59207;SDS011;44977;53.132;6.408;2023-02-28T00:58:12;12.60;;;4.80;;
59207;SDS011;44977;53.132;6.408;2023-02-28T01:03:13;10.80;;;5.05;;
59207;SDS011;44977;53.132;6.408;2023-02-28T01:08:14;10.25;;;4.80;;
59207;SDS011;44977;53.132;6.408;2023-02-28T01:13:15;11.43;;;4.93;;
59207;SDS011;44977;53.132;6.408;2023-02-28T01:18:16;11.00;;;4.40;;
59207;SDS011;44977;53.132;6.408;2023-02-28T01:23:18;10.85;;;5.00;;
59207;SDS011;44977;53.132;6.408;2023-02-28T01:28:20;11.73;;;5.07;;
59207;SDS011;44977;53.132;6.408;2023-02-28T01:33:22;11.63;;;5.03;;
59207;SDS011;44977;53.132;6.408;2023-02-28T01:38:22;10.48;;;4.68;;
59207;SDS011;44977;53.132;6.408;2023-02-28T01:43:27;11.52;;;4.70;;
59207;SDS011;44977;53.132;6.408;2023-02-28T01:53:54;13.77;;;5.70;;
59207;SDS011;44977;53.132;6.408;2023-02-28T01:58:57;13.52;;;5.40;;
59207;SDS011;44977;53.132;6.408;2023-02-28T02:04:00;14.15;;;5.40;;
59207;SDS011;44977;53.132;6.408;2023-02-28T02:09:03;10.85;;;4.93;;
59207;SDS011;44977;53.132;6.408;2023-02-28T02:14:21;12.45;;;6.45;;
59207;SDS011;44977;53.132;6.408;2023-02-28T02:35:40;16.23;;;7.60;;
59207;SDS011;44977;53.132;6.408;2023-02-28T02:41:08;13.15;;;6.72;;
59207;SDS011;44977;53.132;6.408;2023-02-28T02:46:51;14.02;;;6.90;;
59207;SDS011;44977;53.132;6.408;2023-02-28T02:51:46;12.00;;;6.22;;
59207;SDS011;44977;53.132;6.408;2023-02-28T02:56:48;11.75;;;5.88;;
59207;SDS011;44977;53.132;6.408;2023-02-28T03:01:54;13.48;;;5.75;;
59207;SDS011;44977;53.132;6.408;2023-02-28T03:06:56;14.57;;;5.90;;
59207;SDS011;44977;53.132;6.408;2023-02-28T03:11:57;14.10;;;6.20;;
59207;SDS011;44977;53.132;6.408;2023-02-28T03:17:00;10.90;;;5.03;;
59207;SDS011;44977;53.132;6.408;2023-02-28T03:27:39;11.25;;;5.82;;
59207;SDS011;44977;53.132;6.408;2023-02-28T03:32:50;11.02;;;5.45;;
59207;SDS011;44977;53.132;6.408;2023-02-28T03:38:27;11.05;;;5.28;;
59207;SDS011;44977;53.132;6.408;2023-02-28T03:43:38;13.43;;;8.45;;
59207;SDS011;44977;53.132;6.408;2023-02-28T03:48:45;12.60;;;7.85;;
59207;SDS011;44977;53.132;6.408;2023-02-28T03:53:56;12.35;;;8.15;;
59207;SDS011;44977;53.132;6.408;2023-02-28T03:59:07;12.35;;;8.10;;
59207;SDS011;44977;53.132;6.408;2023-02-28T04:04:15;12.27;;;8.70;;
59207;SDS011;44977;53.132;6.408;2023-02-28T04:09:16;11.35;;;8.13;;
59207;SDS011;44977;53.132;6.408;2023-02-28T04:14:17;10.88;;;7.80;;
59207;SDS011;44977;53.132;6.408;2023-02-28T04:19:18;10.18;;;6.47;;
59207;SDS011;44977;53.132;6.408;2023-02-28T04:24:23;10.18;;;6.90;;
59207;SDS011;44977;53.132;6.408;2023-02-28T04:29:28;9.48;;;6.45;;
59207;SDS011;44977;53.132;6.408;2023-02-28T04:34:30;10.45;;;6.65;;
59207;SDS011;44977;53.132;6.408;2023-02-28T04:39:34;10.25;;;6.30;;
59207;SDS011;44977;53.132;6.408;2023-02-28T04:44:36;10.60;;;6.18;;
59207;SDS011;44977;53.132;6.408;2023-02-28T04:49:37;10.07;;;5.78;;
59207;SDS011;44977;53.132;6.408;2023-02-28T04:54:38;10.35;;;6.38;;
59207;SDS011;44977;53.132;6.408;2023-02-28T04:59:39;10.73;;;7.28;;
59207;SDS011;44977;53.132;6.408;2023-02-28T05:04:39;11.35;;;7.95;;
59207;SDS011;44977;53.132;6.408;2023-02-28T05:09:40;12.45;;;7.88;;
59207;SDS011;44977;53.132;6.408;2023-02-28T05:14:41;12.02;;;7.63;;
59207;SDS011;44977;53.132;6.408;2023-02-28T05:19:41;12.10;;;8.38;;
59207;SDS011;44977;53.132;6.408;2023-02-28T05:24:42;12.80;;;8.38;;
59207;SDS011;44977;53.132;6.408;2023-02-28T05:29:43;12.98;;;8.25;;
59207;SDS011;44977;53.132;6.408;2023-02-28T05:34:43;11.18;;;8.40;;
59207;SDS011;44977;53.132;6.408;2023-02-28T05:39:44;11.98;;;8.80;;
59207;SDS011;44977;53.132;6.408;2023-02-28T05:44:45;12.18;;;8.65;;
59207;SDS011;44977;53.132;6.408;2023-02-28T05:49:46;13.65;;;10.05;;
59207;SDS011;44977;53.132;6.408;2023-02-28T05:54:47;13.57;;;9.00;;
59207;SDS011;44977;53.132;6.408;2023-02-28T05:59:47;11.88;;;8.88;;
59207;SDS011;44977;53.132;6.408;2023-02-28T06:04:48;12.38;;;9.20;;
59207;SDS011;44977;53.132;6.408;2023-02-28T06:09:49;12.27;;;9.43;;
59207;SDS011;44977;53.132;6.408;2023-02-28T06:14:49;13.25;;;10.57;;
59207;SDS011;44977;53.132;6.408;2023-02-28T06:19:50;13.10;;;9.48;;
59207;SDS011;44977;53.132;6.408;2023-02-28T06:24:51;12.57;;;10.05;;
59207;SDS011;44977;53.132;6.408;2023-02-28T06:29:55;14.13;;;10.90;;
59207;SDS011;44977;53.132;6.408;2023-02-28T06:34:56;14.38;;;11.23;;
59207;SDS011;44977;53.132;6.408;2023-02-28T06:39:58;15.00;;;12.15;;
59207;SDS011;44977;53.132;6.408;2023-02-28T06:44:59;12.85;;;9.77;;
59207;SDS011;44977;53.132;6.408;2023-02-28T06:49:59;13.88;;;11.30;;
59207;SDS011;44977;53.132;6.408;2023-02-28T06:55:01;14.45;;;11.38;;
59207;SDS011;44977;53.132;6.408;2023-02-28T07:00:07;15.63;;;11.57;;
59207;SDS011;44977;53.132;6.408;2023-02-28T07:05:08;14.70;;;11.80;;
59207;SDS011;44977;53.132;6.408;2023-02-28T07:10:12;15.82;;;12.48;;
59207;SDS011;44977;53.132;6.408;2023-02-28T07:15:16;15.38;;;12.48;;
59207;SDS011;44977;53.132;6.408;2023-02-28T07:20:17;15.48;;;11.88;;
59207;SDS011;44977;53.132;6.408;2023-02-28T07:25:18;15.73;;;11.43;;
59207;SDS011;44977;53.132;6.408;2023-02-28T07:30:18;14.10;;;10.48;;
59207;SDS011;44977;53.132;6.408;2023-02-28T07:35:19;16.50;;;11.30;;
59207;SDS011;44977;53.132;6.408;2023-02-28T07:40:20;15.75;;;11.68;;
59207;SDS011;44977;53.132;6.408;2023-02-28T07:45:21;15.35;;;11.80;;
59207;SDS011;44977;53.132;6.408;2023-02-28T07:50:22;15.27;;;10.65;;
59207;SDS011;44977;53.132;6.408;2023-02-28T07:55:23;14.23;;;10.93;;
59207;SDS011;44977;53.132;6.408;2023-02-28T08:00:23;16.38;;;12.20;;
59207;SDS011;44977;53.132;6.408;2023-02-28T08:05:24;15.07;;;11.60;;
59207;SDS011;44977;53.132;6.408;2023-02-28T08:10:25;14.75;;;11.73;;
59207;SDS011;44977;53.132;6.408;2023-02-28T08:15:26;16.17;;;12.60;;
59207;SDS011;44977;53.132;6.408;2023-02-28T08:20:27;17.13;;;13.07;;
59207;SDS011;44977;53.132;6.408;2023-02-28T08:25:27;14.30;;;11.75;;
59207;SDS011;44977;53.132;6.408;2023-02-28T08:30:28;14.80;;;12.18;;
59207;SDS011;44977;53.132;6.408;2023-02-28T08:35:29;14.68;;;12.23;;
59207;SDS011;44977;53.132;6.408;2023-02-28T08:40:29;16.15;;;11.68;;
59207;SDS011;44977;53.132;6.408;2023-02-28T08:45:30;16.08;;;11.95;;
59207;SDS011;44977;53.132;6.408;2023-02-28T08:50:31;16.88;;;12.05;;
59207;SDS011;44977;53.132;6.408;2023-02-28T08:55:31;15.80;;;12.13;;
59207;SDS011;44977;53.132;6.408;2023-02-28T09:00:32;17.02;;;12.70;;
59207;SDS011;44977;53.132;6.408;2023-02-28T09:05:33;16.80;;;13.50;;
59207;SDS011;44977;53.132;6.408;2023-02-28T09:10:34;16.95;;;12.65;;
59207;SDS011;44977;53.132;6.408;2023-02-28T09:15:36;17.15;;;12.38;;
59207;SDS011;44977;53.132;6.408;2023-02-28T09:20:38;18.13;;;12.27;;
59207;SDS011;44977;53.132;6.408;2023-02-28T09:25:49;15.93;;;11.73;;
59207;SDS011;44977;53.132;6.408;2023-02-28T09:30:53;17.20;;;13.57;;
59207;SDS011;44977;53.132;6.408;2023-02-28T09:35:58;17.73;;;13.63;;
59207;SDS011;44977;53.132;6.408;2023-02-28T09:41:08;16.17;;;13.55;;
59207;SDS011;44977;53.132;6.408;2023-02-28T09:51:37;16.67;;;14.15;;
59207;SDS011;44977;53.132;6.408;2023-02-28T09:56:50;15.15;;;12.95;;
59207;SDS011;44977;53.132;6.408;2023-02-28T10:02:15;16.17;;;12.15;;
59207;SDS011;44977;53.132;6.408;2023-02-28T10:07:22;16.50;;;12.02;;
59207;SDS011;44977;53.132;6.408;2023-02-28T10:12:31;14.70;;;11.95;;
59207;SDS011;44977;53.132;6.408;2023-02-28T10:17:42;14.88;;;10.95;;
59207;SDS011;44977;53.132;6.408;2023-02-28T10:22:52;12.77;;;9.50;;
59207;SDS011;44977;53.132;6.408;2023-02-28T10:27:54;11.57;;;8.82;;
59207;SDS011;44977;53.132;6.408;2023-02-28T10:33:13;12.82;;;8.27;;
59207;SDS011;44977;53.132;6.408;2023-02-28T10:38:20;12.48;;;8.13;;
59207;SDS011;44977;53.132;6.408;2023-02-28T10:43:24;11.82;;;7.90;;
59207;SDS011;44977;53.132;6.408;2023-02-28T10:48:29;8.90;;;6.32;;
59207;SDS011;44977;53.132;6.408;2023-02-28T10:53:34;10.52;;;6.72;;
59207;SDS011;44977;53.132;6.408;2023-02-28T11:04:02;9.20;;;5.18;;
59207;SDS011;44977;53.132;6.408;2023-02-28T11:14:32;9.25;;;5.60;;
59207;SDS011;44977;53.132;6.408;2023-02-28T11:19:40;8.75;;;5.75;;
59207;SDS011;44977;53.132;6.408;2023-02-28T11:24:47;8.33;;;5.00;;
59207;SDS011;44977;53.132;6.408;2023-02-28T11:29:51;9.23;;;4.22;;
59207;SDS011;44977;53.132;6.408;2023-02-28T11:35:34;8.02;;;4.15;;
59207;SDS011;44977;53.132;6.408;2023-02-28T11:45:55;8.05;;;4.13;;
59207;SDS011;44977;53.132;6.408;2023-02-28T12:07:36;8.88;;;4.20;;
59207;SDS011;44977;53.132;6.408;2023-02-28T12:12:50;7.55;;;3.60;;
59207;SDS011;44977;53.132;6.408;2023-02-28T12:29:15;7.63;;;4.75;;
59207;SDS011;44977;53.132;6.408;2023-02-28T12:34:27;8.00;;;4.93;;
59207;SDS011;44977;53.132;6.408;2023-02-28T12:39:34;9.45;;;5.20;;
59207;SDS011;44977;53.132;6.408;2023-02-28T12:44:48;9.05;;;4.70;;
59207;SDS011;44977;53.132;6.408;2023-02-28T12:50:05;8.18;;;4.80;;
59207;SDS011;44977;53.132;6.408;2023-02-28T13:01:02;8.43;;;5.43;;
59207;SDS011;44977;53.132;6.408;2023-02-28T13:06:29;9.90;;;6.32;;
59207;SDS011;44977;53.132;6.408;2023-02-28T13:11:44;8.67;;;5.37;;
59207;SDS011;44977;53.132;6.408;2023-02-28T13:16:51;8.90;;;5.40;;
59207;SDS011;44977;53.132;6.408;2023-02-28T13:21:56;9.43;;;5.80;;
59207;SDS011;44977;53.132;6.408;2023-02-28T13:47:41;8.85;;;5.68;;
59207;SDS011;44977;53.132;6.408;2023-02-28T13:52:53;8.93;;;5.72;;
59207;SDS011;44977;53.132;6.408;2023-02-28T14:19:36;10.73;;;6.00;;
59207;SDS011;44977;53.132;6.408;2023-02-28T14:25:23;10.00;;;6.30;;
59207;SDS011;44977;53.132;6.408;2023-02-28T14:40:45;10.50;;;6.82;;
59207;SDS011;44977;53.132;6.408;2023-02-28T14:45:49;10.13;;;6.20;;
59207;SDS011;44977;53.132;6.408;2023-02-28T14:50:59;9.05;;;6.10;;
59207;SDS011;44977;53.132;6.408;2023-02-28T14:56:00;10.27;;;6.60;;
59207;SDS011;44977;53.132;6.408;2023-02-28T15:01:02;9.48;;;6.20;;
59207;SDS011;44977;53.132;6.408;2023-02-28T15:06:05;9.05;;;5.97;;
59207;SDS011;44977;53.132;6.408;2023-02-28T15:11:18;9.32;;;6.40;;
59207;SDS011;44977;53.132;6.408;2023-02-28T15:16:23;10.63;;;6.88;;
59207;SDS011;44977;53.132;6.408;2023-02-28T15:21:25;10.40;;;6.80;;
59207;SDS011;44977;53.132;6.408;2023-02-28T15:26:38;9.68;;;6.38;;
59207;SDS011;44977;53.132;6.408;2023-02-28T15:31:43;9.65;;;6.88;;
59207;SDS011;44977;53.132;6.408;2023-02-28T15:36:45;10.20;;;6.47;;
59207;SDS011;44977;53.132;6.408;2023-02-28T15:41:46;9.18;;;6.10;;
59207;SDS011;44977;53.132;6.408;2023-02-28T15:47:01;8.93;;;6.13;;
59207;SDS011;44977;53.132;6.408;2023-02-28T15:52:05;9.88;;;6.95;;
59207;SDS011;44977;53.132;6.408;2023-02-28T15:57:06;10.38;;;7.20;;
59207;SDS011;44977;53.132;6.408;2023-02-28T16:02:17;9.48;;;7.18;;
59207;SDS011;44977;53.132;6.408;2023-02-28T16:07:20;9.80;;;7.07;;
59207;SDS011;44977;53.132;6.408;2023-02-28T16:12:23;9.95;;;7.00;;
59207;SDS011;44977;53.132;6.408;2023-02-28T16:17:27;10.82;;;7.65;;
59207;SDS011;44977;53.132;6.408;2023-02-28T16:22:31;10.65;;;7.45;;
59207;SDS011;44977;53.132;6.408;2023-02-28T16:27:33;9.10;;;7.63;;
59207;SDS011;44977;53.132;6.408;2023-02-28T16:32:37;12.93;;;8.20;;
59207;SDS011;44977;53.132;6.408;2023-02-28T16:37:38;10.40;;;7.82;;
59207;SDS011;44977;53.132;6.408;2023-02-28T16:42:39;12.50;;;9.65;;
59207;SDS011;44977;53.132;6.408;2023-02-28T16:47:41;14.68;;;11.55;;
59207;SDS011;44977;53.132;6.408;2023-02-28T16:52:42;10.63;;;8.50;;
59207;SDS011;44977;53.132;6.408;2023-02-28T16:57:42;18.67;;;16.70;;
59207;SDS011;44977;53.132;6.408;2023-02-28T17:02:44;17.50;;;15.63;;
59207;SDS011;44977;53.132;6.408;2023-02-28T17:07:45;13.60;;;10.13;;
59207;SDS011;44977;53.132;6.408;2023-02-28T17:12:46;12.98;;;8.60;;
59207;SDS011;44977;53.132;6.408;2023-02-28T17:17:47;11.63;;;8.50;;
59207;SDS011;44977;53.132;6.408;2023-02-28T17:22:49;13.25;;;9.35;;
59207;SDS011;44977;53.132;6.408;2023-02-28T17:27:50;12.13;;;10.02;;
59207;SDS011;44977;53.132;6.408;2023-02-28T17:32:51;13.98;;;10.77;;
59207;SDS011;44977;53.132;6.408;2023-02-28T17:37:52;14.52;;;10.82;;
59207;SDS011;44977;53.132;6.408;2023-02-28T17:42:53;13.52;;;10.75;;
59207;SDS011;44977;53.132;6.408;2023-02-28T17:47:55;15.45;;;12.43;;
59207;SDS011;44977;53.132;6.408;2023-02-28T17:52:55;13.63;;;12.10;;
59207;SDS011;44977;53.132;6.408;2023-02-28T17:57:56;16.48;;;14.02;;
59207;SDS011;44977;53.132;6.408;2023-02-28T18:02:57;17.48;;;15.77;;
59207;SDS011;44977;53.132;6.408;2023-02-28T18:07:57;18.15;;;15.15;;
59207;SDS011;44977;53.132;6.408;2023-02-28T18:12:58;16.85;;;14.73;;
59207;SDS011;44977;53.132;6.408;2023-02-28T18:17:59;17.92;;;15.63;;
59207;SDS011;44977;53.132;6.408;2023-02-28T18:23:00;18.52;;;14.75;;
59207;SDS011;44977;53.132;6.408;2023-02-28T18:28:01;18.85;;;16.92;;
59207;SDS011;44977;53.132;6.408;2023-02-28T18:33:02;20.00;;;17.33;;
59207;SDS011;44977;53.132;6.408;2023-02-28T18:38:07;17.83;;;16.00;;
59207;SDS011;44977;53.132;6.408;2023-02-28T18:43:16;19.02;;;15.95;;
59207;SDS011;44977;53.132;6.408;2023-02-28T18:48:18;18.50;;;15.73;;
59207;SDS011;44977;53.132;6.408;2023-02-28T18:53:18;17.75;;;15.80;;
59207;SDS011;44977;53.132;6.408;2023-02-28T18:58:19;16.10;;;14.40;;
59207;SDS011;44977;53.132;6.408;2023-02-28T19:03:20;17.13;;;14.15;;
59207;SDS011;44977;53.132;6.408;2023-02-28T19:08:21;18.83;;;15.30;;
59207;SDS011;44977;53.132;6.408;2023-02-28T19:13:22;18.30;;;16.33;;
59207;SDS011;44977;53.132;6.408;2023-02-28T19:18:23;18.85;;;16.85;;
59207;SDS011;44977;53.132;6.408;2023-02-28T19:23:24;19.10;;;17.10;;
59207;SDS011;44977;53.132;6.408;2023-02-28T19:28:28;19.52;;;17.42;;
59207;SDS011;44977;53.132;6.408;2023-02-28T19:33:29;19.17;;;17.15;;
59207;SDS011;44977;53.132;6.408;2023-02-28T19:38:30;19.75;;;17.80;;
59207;SDS011;44977;53.132;6.408;2023-02-28T19:43:31;19.88;;;17.83;;
59207;SDS011;44977;53.132;6.408;2023-02-28T19:48:32;20.67;;;18.48;;
59207;SDS011;44977;53.132;6.408;2023-02-28T19:53:33;22.13;;;19.83;;
59207;SDS011;44977;53.132;6.408;2023-02-28T19:58:34;26.90;;;24.20;;
59207;SDS011;44977;53.132;6.408;2023-02-28T20:03:35;22.25;;;19.45;;
59207;SDS011;44977;53.132;6.408;2023-02-28T20:08:36;21.33;;;19.02;;
59207;SDS011;44977;53.132;6.408;2023-02-28T20:13:37;21.48;;;18.23;;
59207;SDS011;44977;53.132;6.408;2023-02-28T20:18:38;21.60;;;19.15;;
59207;SDS011;44977;53.132;6.408;2023-02-28T20:23:40;23.13;;;19.02;;
59207;SDS011;44977;53.132;6.408;2023-02-28T20:28:42;20.73;;;18.52;;
59207;SDS011;44977;53.132;6.408;2023-02-28T20:33:43;23.30;;;19.58;;
59207;SDS011;44977;53.132;6.408;2023-02-28T20:38:44;23.35;;;19.35;;
59207;SDS011;44977;53.132;6.408;2023-02-28T20:43:45;23.08;;;19.95;;
59207;SDS011;44977;53.132;6.408;2023-02-28T20:48:46;21.95;;;19.20;;
59207;SDS011;44977;53.132;6.408;2023-02-28T20:53:46;21.38;;;19.17;;
59207;SDS011;44977;53.132;6.408;2023-02-28T20:58:47;21.00;;;18.33;;
59207;SDS011;44977;53.132;6.408;2023-02-28T21:03:53;21.50;;;19.20;;
59207;SDS011;44977;53.132;6.408;2023-02-28T21:08:55;22.08;;;19.65;;
59207;SDS011;44977;53.132;6.408;2023-02-28T21:13:57;24.48;;;20.27;;
59207;SDS011;44977;53.132;6.408;2023-02-28T21:19:00;34.28;;;27.10;;
59207;SDS011;44977;53.132;6.408;2023-02-28T21:24:04;32.08;;;24.48;;
59207;SDS011;44977;53.132;6.408;2023-02-28T21:29:05;30.20;;;24.85;;
59207;SDS011;44977;53.132;6.408;2023-02-28T21:34:06;25.88;;;21.48;;
59207;SDS011;44977;53.132;6.408;2023-02-28T21:39:11;24.80;;;21.88;;
59207;SDS011;44977;53.132;6.408;2023-02-28T21:44:24;24.55;;;21.67;;
59207;SDS011;44977;53.132;6.408;2023-02-28T21:49:27;24.63;;;21.98;;
59207;SDS011;44977;53.132;6.408;2023-02-28T21:54:28;24.80;;;21.23;;
59207;SDS011;44977;53.132;6.408;2023-02-28T21:59:28;22.70;;;20.15;;
59207;SDS011;44977;53.132;6.408;2023-02-28T22:04:29;25.13;;;21.35;;
59207;SDS011;44977;53.132;6.408;2023-02-28T22:09:30;23.73;;;20.42;;
59207;SDS011;44977;53.132;6.408;2023-02-28T22:14:31;23.75;;;21.17;;
59207;SDS011;44977;53.132;6.408;2023-02-28T22:19:32;25.90;;;22.38;;
59207;SDS011;44977;53.132;6.408;2023-02-28T22:24:35;25.75;;;21.83;;
59207;SDS011;44977;53.132;6.408;2023-02-28T22:29:35;22.98;;;20.60;;
59207;SDS011;44977;53.132;6.408;2023-02-28T22:34:36;24.98;;;21.40;;
59207;SDS011;44977;53.132;6.408;2023-02-28T22:39:36;24.98;;;21.15;;
59207;SDS011;44977;53.132;6.408;2023-02-28T22:44:37;24.00;;;20.40;;
59207;SDS011;44977;53.132;6.408;2023-02-28T22:49:38;22.65;;;19.52;;
59207;SDS011;44977;53.132;6.408;2023-02-28T22:54:38;22.67;;;19.52;;
59207;SDS011;44977;53.132;6.408;2023-02-28T22:59:39;22.70;;;19.40;;
59207;SDS011;44977;53.132;6.408;2023-02-28T23:04:40;20.98;;;18.10;;
59207;SDS011;44977;53.132;6.408;2023-02-28T23:09:41;21.90;;;18.83;;
59207;SDS011;44977;53.132;6.408;2023-02-28T23:14:42;21.70;;;18.65;;
59207;SDS011;44977;53.132;6.408;2023-02-28T23:19:42;22.50;;;19.50;;
59207;SDS011;44977;53.132;6.408;2023-02-28T23:24:43;24.20;;;20.05;;
59207;SDS011;44977;53.132;6.408;2023-02-28T23:29:44;22.98;;;19.35;;
59207;SDS011;44977;53.132;6.408;2023-02-28T23:34:45;22.33;;;19.23;;
59207;SDS011;44977;53.132;6.408;2023-02-28T23:39:45;22.42;;;20.10;;
59207;SDS011;44977;53.132;6.408;2023-02-28T23:44:46;23.00;;;20.52;;
59207;SDS011;44977;53.132;6.408;2023-02-28T23:49:46;22.50;;;19.80;;
59207;SDS011;44977;53.132;6.408;2023-02-28T23:54:47;21.17;;;18.20;;
59207;SDS011;44977;53.132;6.408;2023-02-28T23:59:48;23.50;;;20.85;;
